Time;durP1;ratioP1;P1;durP2;ratioP2;P2;SDS_P1;SDS_P2;PMS_P1;PMS_P2;Temp;Humidity;BMP_temperature;BMP_pressure;BME280_temperature;BME280_humidity;BME280_pressure;Samples;Min_cycle;Max_cycle;Signal;HPM_P1;HPM_P2
2021/05/21 00:01:47;;;;;;;15.28;11.93;;;14.00;99.90;;;;;;1952929;73;21073;-78
2021/05/21 00:04:14;;;;;;;15.48;11.90;;;14.00;99.90;;;;;;1957208;72;21176;-78
2021/05/21 00:06:42;;;;;;;14.23;11.33;;;13.80;99.90;;;;;;1957858;73;21053;-78
2021/05/21 00:09:09;;;;;;;14.75;11.48;;;14.00;99.90;;;;;;1957782;73;21148;-78
2021/05/21 00:11:37;;;;;;;16.55;12.00;;;13.80;99.90;;;;;;1954692;72;21075;-78
2021/05/21 00:14:05;;;;;;;14.00;10.48;;;13.90;99.90;;;;;;1958123;72;21085;-78
2021/05/21 00:16:32;;;;;;;15.80;11.63;;;14.00;99.90;;;;;;1954018;73;21073;-78
2021/05/21 00:19:00;;;;;;;16.73;11.68;;;13.90;99.90;;;;;;1952586;73;21026;-79
2021/05/21 00:21:27;;;;;;;14.30;10.90;;;14.00;99.90;;;;;;1955723;73;21006;-78
2021/05/21 00:23:55;;;;;;;17.70;12.00;;;14.20;99.90;;;;;;1959677;72;21074;-78
2021/05/21 00:26:22;;;;;;;15.18;11.48;;;13.70;99.90;;;;;;1957216;73;21159;-78
2021/05/21 00:28:50;;;;;;;15.70;11.43;;;13.70;99.90;;;;;;1955708;73;21078;-78
2021/05/21 00:31:17;;;;;;;15.08;11.80;;;13.60;99.90;;;;;;1951099;73;21127;-78
2021/05/21 00:33:45;;;;;;;14.28;11.40;;;13.50;99.90;;;;;;1957366;73;21077;-77
2021/05/21 00:36:12;;;;;;;13.48;10.10;;;13.60;99.90;;;;;;1952110;73;21097;-78
2021/05/21 00:38:40;;;;;;;15.70;10.58;;;13.80;99.90;;;;;;1955998;73;21214;-77
2021/05/21 00:41:07;;;;;;;14.75;10.82;;;13.90;99.90;;;;;;1957077;71;21162;-78
2021/05/21 00:43:36;;;;;;;13.25;10.25;;;13.50;99.90;;;;;;1960002;73;21080;-77
2021/05/21 00:46:04;;;;;;;13.60;10.28;;;13.70;99.90;;;;;;1961296;73;21053;-76
2021/05/21 00:48:31;;;;;;;15.78;10.10;;;14.00;99.90;;;;;;1961559;73;21137;-77
2021/05/21 00:50:59;;;;;;;12.70;10.13;;;14.00;99.90;;;;;;1951639;72;21666;-76
2021/05/21 00:53:30;;;;;;;15.35;9.75;;;13.70;99.90;;;;;;1956029;73;21083;-77
2021/05/21 00:56:02;;;;;;;12.00;9.38;;;13.80;99.90;;;;;;1955806;73;21600;-77
2021/05/21 00:58:29;;;;;;;12.35;10.08;;;14.00;99.90;;;;;;1957725;72;21058;-76
2021/05/21 01:00:58;;;;;;;12.10;9.48;;;14.10;99.90;;;;;;1953892;73;21178;-75
2021/05/21 01:03:25;;;;;;;11.85;9.03;;;14.00;99.90;;;;;;1955603;73;21085;-76
2021/05/21 01:05:53;;;;;;;14.63;9.40;;;14.00;99.90;;;;;;1955516;72;21105;-77
2021/05/21 01:08:21;;;;;;;12.75;9.85;;;13.90;99.90;;;;;;1948876;72;21026;-77
2021/05/21 01:10:48;;;;;;;11.93;8.95;;;13.90;99.90;;;;;;1954322;73;21104;-76
2021/05/21 01:13:16;;;;;;;12.25;9.28;;;14.00;99.90;;;;;;1951921;73;21026;-76
2021/05/21 01:15:44;;;;;;;12.18;9.00;;;14.00;99.90;;;;;;1959009;73;21207;-76
2021/05/21 01:18:12;;;;;;;16.55;8.93;;;14.20;99.90;;;;;;1957621;73;21178;-77
2021/05/21 01:20:40;;;;;;;9.88;8.45;;;14.10;99.90;;;;;;1956794;72;21090;-76
2021/05/21 01:23:09;;;;;;;11.38;8.30;;;14.00;99.90;;;;;;1954214;73;21158;-76
2021/05/21 01:25:38;;;;;;;15.48;8.95;;;13.90;99.90;;;;;;1952967;73;21194;-76
2021/05/21 01:28:06;;;;;;;13.95;8.10;;;13.90;99.90;;;;;;1962213;73;21077;-75
2021/05/21 01:30:33;;;;;;;10.50;8.48;;;13.90;99.90;;;;;;1954227;73;21555;-75
2021/05/21 01:33:10;;;;;;;11.65;8.05;;;13.90;99.90;;;;;;1957291;73;21601;-76
2021/05/21 01:35:40;;;;;;;15.32;7.60;;;13.90;99.90;;;;;;1953662;73;21155;-76
2021/05/21 01:38:08;;;;;;;11.40;7.40;;;13.70;99.90;;;;;;1954411;73;21575;-77
2021/05/21 01:40:36;;;;;;;10.58;6.90;;;13.70;99.90;;;;;;1957941;73;21096;-78
2021/05/21 01:43:05;;;;;;;11.73;7.00;;;13.70;99.90;;;;;;1950934;72;21512;-78
2021/05/21 01:45:32;;;;;;;8.98;6.55;;;13.80;99.90;;;;;;1953234;73;21101;-78
2021/05/21 01:48:00;;;;;;;8.20;6.12;;;13.50;99.90;;;;;;1952808;72;21084;-78
2021/05/21 01:50:28;;;;;;;9.15;6.53;;;13.60;99.90;;;;;;1955881;72;21552;-77
2021/05/21 01:52:55;;;;;;;8.00;6.00;;;13.60;99.90;;;;;;1955020;71;21667;-77
2021/05/21 01:55:23;;;;;;;9.25;6.05;;;13.70;99.90;;;;;;1956875;73;21664;-77
2021/05/21 01:57:50;;;;;;;7.75;5.50;;;13.40;99.90;;;;;;1952045;73;21088;-78
2021/05/21 02:00:18;;;;;;;8.55;5.53;;;13.60;99.90;;;;;;1952386;73;21198;-78
2021/05/21 02:02:46;;;;;;;9.10;5.15;;;13.60;99.90;;;;;;1950485;73;21093;-77
2021/05/21 02:05:13;;;;;;;10.63;5.37;;;13.60;99.90;;;;;;1953486;73;21144;-78
2021/05/21 02:07:41;;;;;;;6.50;4.72;;;13.50;99.90;;;;;;1960858;72;21125;-78
2021/05/21 02:10:11;;;;;;;10.50;5.62;;;13.50;99.90;;;;;;1960632;73;21159;-78
2021/05/21 02:12:40;;;;;;;5.05;4.40;;;13.60;99.90;;;;;;1957679;71;21081;-79
2021/05/21 02:15:09;;;;;;;7.33;4.40;;;13.70;99.90;;;;;;1956375;73;21070;-78
2021/05/21 02:17:37;;;;;;;9.18;4.22;;;13.70;99.90;;;;;;1955439;73;21026;-79
2021/05/21 02:20:06;;;;;;;7.70;4.42;;;13.90;99.90;;;;;;1957327;72;21332;-77
2021/05/21 02:22:34;;;;;;;8.95;4.47;;;13.60;99.90;;;;;;1955886;73;21092;-77
2021/05/21 02:25:02;;;;;;;8.45;4.10;;;13.50;99.90;;;;;;1953342;73;21117;-77
2021/05/21 02:27:30;;;;;;;8.18;4.22;;;13.40;99.90;;;;;;1951275;73;21061;-77
2021/05/21 02:29:57;;;;;;;5.28;3.90;;;13.50;99.90;;;;;;1957360;73;21132;-77
2021/05/21 02:32:25;;;;;;;7.28;3.70;;;13.50;99.90;;;;;;1952995;73;21124;-77
2021/05/21 02:34:52;;;;;;;4.85;3.92;;;13.30;99.90;;;;;;1955608;72;21554;-77
2021/05/21 02:37:20;;;;;;;5.08;3.80;;;13.20;99.90;;;;;;1951701;73;21539;-77
2021/05/21 02:39:47;;;;;;;5.10;3.70;;;13.30;99.90;;;;;;1953212;73;21190;-78
2021/05/21 02:42:15;;;;;;;6.80;3.37;;;13.30;99.90;;;;;;1956728;73;21201;-77
2021/05/21 02:44:42;;;;;;;6.03;2.95;;;13.20;99.90;;;;;;1962372;72;21150;-78
2021/05/21 02:47:13;;;;;;;6.87;3.17;;;13.30;99.90;;;;;;1959835;73;21102;-78
2021/05/21 02:49:39;;;;;;;6.35;3.30;;;13.50;99.90;;;;;;1953605;73;21172;-77
2021/05/21 02:52:07;;;;;;;5.42;2.92;;;13.40;99.90;;;;;;1956756;73;21117;-78
2021/05/21 02:54:34;;;;;;;13.55;2.65;;;13.40;99.90;;;;;;1951268;73;21626;-78
2021/05/21 02:57:02;;;;;;;4.28;2.33;;;13.40;99.90;;;;;;1952314;73;21125;-78
2021/05/21 02:59:29;;;;;;;10.05;2.75;;;13.50;99.90;;;;;;1958762;73;21062;-78
2021/05/21 03:01:57;;;;;;;3.60;2.70;;;13.50;99.90;;;;;;1956361;73;21543;-77
2021/05/21 03:04:24;;;;;;;8.45;2.85;;;13.40;99.90;;;;;;1953505;73;21089;-76
2021/05/21 03:06:51;;;;;;;4.42;2.40;;;13.50;99.90;;;;;;1961359;72;21042;-77
2021/05/21 03:09:19;;;;;;;3.52;2.40;;;13.50;99.90;;;;;;1951013;73;21154;-77
2021/05/21 03:11:46;;;;;;;4.30;2.52;;;13.40;99.90;;;;;;1951708;73;21587;-78
2021/05/21 03:14:14;;;;;;;6.03;2.37;;;13.40;99.90;;;;;;1951634;73;21182;-77
2021/05/21 03:16:42;;;;;;;4.40;2.55;;;13.20;99.90;;;;;;1955666;73;21170;-77
2021/05/21 03:19:09;;;;;;;5.10;2.37;;;13.30;99.90;;;;;;1960351;73;21057;-79
2021/05/21 03:21:37;;;;;;;5.72;2.50;;;13.50;99.90;;;;;;1955424;73;21085;-77
2021/05/21 03:24:05;;;;;;;3.95;2.10;;;13.10;99.90;;;;;;1953908;72;21045;-77
2021/05/21 03:26:34;;;;;;;6.28;2.75;;;13.00;99.90;;;;;;1960703;73;21656;-77
2021/05/21 03:29:02;;;;;;;4.35;2.30;;;13.00;99.90;;;;;;1959496;73;21054;-78
2021/05/21 03:31:29;;;;;;;6.92;2.15;;;13.00;99.90;;;;;;1953842;72;21034;-76
2021/05/21 03:33:57;;;;;;;4.95;2.12;;;13.00;99.90;;;;;;1957985;73;21527;-77
2021/05/21 03:36:24;;;;;;;5.87;2.42;;;13.30;99.90;;;;;;1959819;73;21182;-78
2021/05/21 03:38:52;;;;;;;4.60;2.00;;;13.50;99.90;;;;;;1947738;73;21163;-78
2021/05/21 03:41:19;;;;;;;3.30;1.65;;;13.50;99.90;;;;;;1947927;73;21131;-77
2021/05/21 03:43:47;;;;;;;3.62;1.87;;;13.40;99.90;;;;;;1957454;72;21221;-77
2021/05/21 03:46:15;;;;;;;2.15;1.52;;;13.40;99.90;;;;;;1953807;73;21154;-78
2021/05/21 03:48:43;;;;;;;2.75;1.62;;;13.40;99.90;;;;;;1958334;73;21178;-78
2021/05/21 03:51:10;;;;;;;3.58;1.57;;;13.40;99.90;;;;;;1955670;73;21546;-78
2021/05/21 03:53:38;;;;;;;4.62;1.70;;;13.30;99.90;;;;;;1955648;73;21080;-78
2021/05/21 03:56:06;;;;;;;6.20;1.75;;;13.40;99.90;;;;;;1958833;72;21187;-78
2021/05/21 03:58:34;;;;;;;2.92;1.50;;;13.30;99.90;;;;;;1954813;73;21583;-77
2021/05/21 04:01:02;;;;;;;5.97;1.52;;;13.40;99.90;;;;;;1954598;73;21075;-77
2021/05/21 04:03:30;;;;;;;5.50;1.77;;;13.30;99.90;;;;;;1954443;73;21463;-78
2021/05/21 04:05:58;;;;;;;6.17;1.35;;;13.40;99.90;;;;;;1953525;73;21059;-78
2021/05/21 04:08:28;;;;;;;8.63;1.85;;;13.50;99.90;;;;;;1956110;73;21096;-77
2021/05/21 04:10:54;;;;;;;2.72;1.30;;;13.60;99.90;;;;;;1959911;72;21170;-78
2021/05/21 04:13:22;;;;;;;2.72;1.40;;;13.70;99.90;;;;;;1957034;73;21030;-79
2021/05/21 04:15:49;;;;;;;5.45;1.40;;;13.70;99.90;;;;;;1959074;73;21508;-78
2021/05/21 04:18:17;;;;;;;5.15;1.55;;;13.60;99.90;;;;;;1956183;73;21569;-77
2021/05/21 04:20:45;;;;;;;4.58;1.80;;;13.70;99.90;;;;;;1956187;73;21078;-79
2021/05/21 04:23:12;;;;;;;5.20;1.50;;;13.60;99.90;;;;;;1950362;73;21042;-80
2021/05/21 04:25:40;;;;;;;2.42;1.40;;;13.40;99.90;;;;;;1954361;73;21121;-78
2021/05/21 04:28:07;;;;;;;4.60;1.22;;;13.60;99.90;;;;;;1951994;73;21096;-78
2021/05/21 04:30:35;;;;;;;3.30;1.37;;;13.50;99.90;;;;;;1957750;73;21448;-78
2021/05/21 04:33:02;;;;;;;4.75;1.30;;;13.50;99.90;;;;;;1958941;73;21049;-79
2021/05/21 04:35:30;;;;;;;9.93;1.62;;;13.40;99.90;;;;;;1961087;73;21085;-77
2021/05/21 04:37:57;;;;;;;2.40;1.20;;;13.50;99.90;;;;;;1955665;73;21348;-77
2021/05/21 04:40:25;;;;;;;2.35;1.22;;;13.60;99.90;;;;;;1951883;73;21128;-79
2021/05/21 04:42:53;;;;;;;7.92;1.60;;;13.60;99.90;;;;;;1958148;71;21050;-77
2021/05/21 04:45:20;;;;;;;5.08;1.60;;;13.60;99.90;;;;;;1959436;73;21105;-79
2021/05/21 04:47:48;;;;;;;4.40;1.30;;;13.80;99.90;;;;;;1958573;73;21085;-79
2021/05/21 04:50:15;;;;;;;2.42;1.45;;;13.60;99.90;;;;;;1956106;72;21053;-77
2021/05/21 04:52:43;;;;;;;6.25;1.30;;;13.70;99.90;;;;;;1954895;73;21170;-76
2021/05/21 04:55:12;;;;;;;2.52;1.40;;;14.00;99.90;;;;;;1955621;73;21120;-82
2021/05/21 04:57:40;;;;;;;4.87;1.22;;;13.90;99.90;;;;;;1957779;73;21093;-78
2021/05/21 05:00:08;;;;;;;5.10;1.50;;;14.00;99.90;;;;;;1955300;72;21049;-78
2021/05/21 05:02:36;;;;;;;2.02;1.12;;;13.90;99.90;;;;;;1962524;73;21009;-79
2021/05/21 05:05:04;;;;;;;4.53;1.12;;;13.90;99.90;;;;;;1959969;73;21047;-77
2021/05/21 05:07:31;;;;;;;4.05;1.17;;;13.90;99.90;;;;;;1958132;73;21151;-79
2021/05/21 05:09:59;;;;;;;3.85;1.27;;;14.10;99.90;;;;;;1959630;73;21538;-78
2021/05/21 05:12:26;;;;;;;4.95;1.50;;;13.90;99.90;;;;;;1962049;73;21081;-78
2021/05/21 05:14:54;;;;;;;4.17;1.40;;;14.10;99.90;;;;;;1958850;72;21086;-78
2021/05/21 05:17:22;;;;;;;1.90;0.90;;;14.20;99.90;;;;;;1958659;73;21170;-77
2021/05/21 05:19:49;;;;;;;4.97;1.82;;;14.20;99.90;;;;;;1953274;73;21088;-77
2021/05/21 05:22:17;;;;;;;5.58;1.65;;;14.20;99.90;;;;;;1957945;72;21360;-78
2021/05/21 05:24:45;;;;;;;6.80;1.35;;;14.20;99.90;;;;;;1953684;73;21477;-78
2021/05/21 05:27:12;;;;;;;6.08;1.20;;;14.10;99.90;;;;;;1950355;73;21080;-78
2021/05/21 05:29:39;;;;;;;4.78;1.47;;;14.20;99.90;;;;;;1957331;73;21093;-78
2021/05/21 05:32:08;;;;;;;5.35;1.50;;;14.00;99.90;;;;;;1951115;73;21096;-78
2021/05/21 05:34:36;;;;;;;2.92;1.47;;;13.90;99.90;;;;;;1954839;73;21082;-77
2021/05/21 05:37:03;;;;;;;6.65;1.40;;;13.90;99.90;;;;;;1956298;72;21069;-78
2021/05/21 05:39:31;;;;;;;9.00;1.27;;;13.80;99.90;;;;;;1958913;72;21053;-78
2021/05/21 05:41:58;;;;;;;3.35;1.35;;;13.90;99.90;;;;;;1956098;73;21530;-78
2021/05/21 05:44:26;;;;;;;3.77;1.10;;;14.20;99.90;;;;;;1953871;73;21293;-78
2021/05/21 05:46:53;;;;;;;6.08;1.50;;;14.10;99.90;;;;;;1952229;73;21029;-81
2021/05/21 05:49:21;;;;;;;4.83;1.30;;;14.30;99.90;;;;;;1955052;71;21061;-79
2021/05/21 05:51:48;;;;;;;5.05;1.32;;;14.30;99.90;;;;;;1952460;72;21038;-79
2021/05/21 05:54:16;;;;;;;3.95;1.47;;;14.30;99.90;;;;;;1960804;73;21057;-78
2021/05/21 05:56:43;;;;;;;4.08;1.25;;;14.30;99.90;;;;;;1955815;73;21107;-80
2021/05/21 05:59:11;;;;;;;4.25;1.27;;;14.50;99.90;;;;;;1961409;72;21620;-78
2021/05/21 06:01:38;;;;;;;3.70;1.30;;;14.70;99.90;;;;;;1961214;73;21166;-78
2021/05/21 06:04:06;;;;;;;4.83;1.30;;;14.90;99.90;;;;;;1957327;72;21038;-78
2021/05/21 06:06:33;;;;;;;4.70;1.30;;;14.70;99.90;;;;;;1956704;72;21091;-77
2021/05/21 06:09:01;;;;;;;4.20;1.82;;;14.60;99.90;;;;;;1960596;73;21080;-76
2021/05/21 06:11:29;;;;;;;4.33;1.32;;;14.80;99.90;;;;;;1955995;73;21098;-77
2021/05/21 06:13:56;;;;;;;3.45;1.42;;;14.90;99.90;;;;;;1956380;73;21101;-77
2021/05/21 06:16:24;;;;;;;4.83;1.50;;;14.80;99.90;;;;;;1959606;72;21026;-77
2021/05/21 06:18:51;;;;;;;5.67;1.20;;;14.70;99.90;;;;;;1957829;72;21065;-77
2021/05/21 06:21:19;;;;;;;6.25;1.37;;;14.60;99.90;;;;;;1956249;73;21050;-75
2021/05/21 06:23:46;;;;;;;5.00;1.25;;;14.50;99.90;;;;;;1954068;71;21171;-77
2021/05/21 06:26:30;;;;;;;6.40;1.80;;;14.60;99.90;;;;;;1955886;73;21158;-76
2021/05/21 06:28:47;;;;;;;5.25;1.60;;;14.60;99.90;;;;;;1949429;72;21128;-76
2021/05/21 06:31:15;;;;;;;6.05;1.40;;;14.50;99.90;;;;;;1952628;73;21084;-76
2021/05/21 06:33:42;;;;;;;7.03;1.57;;;14.40;99.90;;;;;;1954259;72;21077;-76
2021/05/21 06:36:11;;;;;;;5.17;1.70;;;14.40;99.90;;;;;;1956190;73;21590;-76
2021/05/21 06:38:40;;;;;;;5.55;1.60;;;14.50;99.90;;;;;;1962171;73;21206;-76
2021/05/21 06:41:08;;;;;;;7.65;1.25;;;14.60;99.90;;;;;;1958249;72;21022;-77
2021/05/21 06:43:36;;;;;;;5.25;1.60;;;14.70;99.90;;;;;;1953830;73;21602;-76
2021/05/21 06:46:05;;;;;;;3.45;1.20;;;14.80;99.90;;;;;;1957660;73;21041;-77
2021/05/21 06:48:32;;;;;;;7.67;1.72;;;14.70;99.90;;;;;;1952024;72;21413;-77
2021/05/21 06:51:06;;;;;;;4.42;1.20;;;14.60;99.90;;;;;;1960866;73;21512;-77
2021/05/21 06:53:34;;;;;;;5.17;1.27;;;14.40;99.90;;;;;;1958392;73;21054;-77
2021/05/21 06:56:02;;;;;;;8.03;1.60;;;14.40;99.90;;;;;;1957676;73;21062;-77
2021/05/21 06:58:30;;;;;;;10.18;1.75;;;14.30;99.90;;;;;;1957463;73;21107;-76
2021/05/21 07:00:58;;;;;;;4.65;1.30;;;14.10;99.90;;;;;;1958650;72;21029;-76
2021/05/21 07:03:31;;;;;;;7.30;1.80;;;14.00;99.90;;;;;;1952796;73;21213;-77
2021/05/21 07:05:59;;;;;;;16.95;2.35;;;14.00;99.90;;;;;;1956281;73;21179;-77
2021/05/21 07:08:28;;;;;;;9.58;2.00;;;13.90;99.90;;;;;;1961376;72;21149;-77
2021/05/21 07:10:55;;;;;;;11.53;2.58;;;13.90;99.90;;;;;;1963098;73;21128;-76
2021/05/21 07:13:23;;;;;;;9.85;2.58;;;13.80;99.90;;;;;;1954505;73;21143;-76
2021/05/21 07:15:50;;;;;;;15.30;2.65;;;13.60;99.90;;;;;;1957191;73;21088;-76
2021/05/21 07:18:18;;;;;;;15.18;3.77;;;13.60;99.90;;;;;;1955966;73;21033;-76
2021/05/21 07:20:47;;;;;;;13.60;2.90;;;13.60;99.90;;;;;;1954015;73;21558;-75
2021/05/21 07:23:15;;;;;;;14.60;2.40;;;13.30;99.90;;;;;;1957447;72;21271;-75
2021/05/21 07:25:43;;;;;;;12.63;2.55;;;13.30;99.90;;;;;;1956426;72;21668;-76
2021/05/21 07:28:10;;;;;;;15.80;2.98;;;13.20;99.90;;;;;;1951077;73;21112;-76
2021/05/21 07:30:38;;;;;;;17.85;3.33;;;13.30;99.90;;;;;;1956010;73;21077;-76
2021/05/21 07:33:05;;;;;;;14.10;3.05;;;13.10;99.90;;;;;;1952600;73;21092;-76
2021/05/21 07:35:33;;;;;;;15.15;3.30;;;13.10;99.90;;;;;;1962186;73;21062;-76
2021/05/21 07:38:00;;;;;;;20.35;3.58;;;13.00;99.90;;;;;;1957464;72;21026;-75
2021/05/21 07:40:28;;;;;;;14.83;3.27;;;12.80;99.90;;;;;;1959342;73;21173;-75
2021/05/21 07:42:56;;;;;;;23.38;3.45;;;12.80;99.90;;;;;;1953669;73;21182;-75
2021/05/21 07:45:23;;;;;;;15.05;3.22;;;12.70;99.90;;;;;;1955833;73;21614;-75
2021/05/21 07:47:51;;;;;;;19.50;3.87;;;12.80;99.90;;;;;;1954170;72;20990;-75
2021/05/21 07:50:18;;;;;;;21.17;3.72;;;12.90;99.90;;;;;;1955338;73;21057;-76
2021/05/21 07:52:46;;;;;;;14.18;3.12;;;12.90;99.90;;;;;;1955296;72;21505;-76
2021/05/21 07:55:14;;;;;;;16.90;3.30;;;13.00;99.90;;;;;;1956654;73;21794;-76
2021/05/21 07:57:41;;;;;;;21.02;4.05;;;13.10;99.90;;;;;;1960327;73;21081;-76
2021/05/21 08:00:11;;;;;;;20.35;3.58;;;13.10;99.90;;;;;;1955941;72;21166;-76
2021/05/21 08:02:38;;;;;;;20.43;4.15;;;13.20;99.90;;;;;;1953704;73;21575;-75
2021/05/21 08:05:07;;;;;;;15.40;3.22;;;13.30;99.90;;;;;;1956342;73;22141;-76
2021/05/21 08:07:35;;;;;;;17.75;3.42;;;13.40;99.90;;;;;;1958275;72;21077;-75
2021/05/21 08:10:05;;;;;;;19.02;3.95;;;13.50;99.90;;;;;;1958953;72;21096;-77
2021/05/21 08:12:32;;;;;;;18.85;3.67;;;13.40;99.90;;;;;;1955751;71;21132;-76
2021/05/21 08:15:00;;;;;;;19.77;3.33;;;13.30;99.90;;;;;;1959942;73;21100;-78
2021/05/21 08:17:31;;;;;;;13.55;3.10;;;13.20;99.90;;;;;;1953020;73;21090;-77
2021/05/21 08:19:56;;;;;;;20.08;3.70;;;13.10;99.90;;;;;;1958893;73;21238;-74
2021/05/21 08:22:24;;;;;;;16.27;3.58;;;12.90;99.90;;;;;;1951339;72;21066;-77
2021/05/21 08:24:52;;;;;;;17.35;3.42;;;12.70;99.90;;;;;;1960053;73;21188;-81
2021/05/21 08:27:19;;;;;;;18.07;3.62;;;12.70;99.90;;;;;;1960972;73;21064;-78
2021/05/21 08:29:47;;;;;;;14.98;3.67;;;12.90;99.90;;;;;;1954742;72;21006;-78
2021/05/21 08:32:14;;;;;;;19.95;3.75;;;12.80;99.90;;;;;;1955919;71;21061;-79
2021/05/21 08:34:42;;;;;;;16.62;3.33;;;12.70;99.90;;;;;;1953851;72;21186;-78
2021/05/21 08:37:09;;;;;;;26.48;3.80;;;13.00;99.90;;;;;;1956534;72;21061;-79
2021/05/21 08:39:39;;;;;;;14.45;2.72;;;13.30;99.90;;;;;;1958549;72;21029;-78
2021/05/21 08:42:09;;;;;;;20.23;3.75;;;13.20;99.90;;;;;;1954980;72;21210;-77
2021/05/21 08:44:38;;;;;;;21.02;3.52;;;13.30;99.90;;;;;;1956183;71;21193;-79
2021/05/21 08:47:07;;;;;;;18.40;3.52;;;13.40;99.90;;;;;;1956744;71;21116;-82
2021/05/21 08:49:34;;;;;;;15.03;3.47;;;13.40;99.90;;;;;;1957360;72;21096;-78
2021/05/21 08:52:03;;;;;;;15.98;3.33;;;13.80;99.90;;;;;;1956682;72;21092;-77
2021/05/21 08:54:41;;;;;;;20.40;3.65;;;14.10;99.90;;;;;;1951151;73;21122;-77
2021/05/21 08:57:06;;;;;;;;;;;14.00;99.90;;;;;;1960788;72;21231;-79
2021/05/21 08:59:36;;;;;;;15.20;3.22;;;14.10;99.90;;;;;;1953911;71;20248;-81
2021/05/21 09:02:06;;;;;;;20.50;3.33;;;14.20;99.90;;;;;;1953365;72;21039;-78
2021/05/21 09:05:00;;;;;;;13.93;3.20;;;14.40;99.90;;;;;;1954102;73;21148;-77
2021/05/21 09:07:28;;;;;;;21.52;3.33;;;14.60;99.90;;;;;;1956200;73;21158;-78
2021/05/21 09:09:57;;;;;;;16.23;3.05;;;14.60;99.90;;;;;;1956294;73;21058;-79
2021/05/21 09:12:25;;;;;;;21.65;3.77;;;14.70;99.90;;;;;;1958007;73;21115;-78
2021/05/21 09:15:13;;;;;;;14.63;3.30;;;14.60;99.90;;;;;;1956312;73;21434;-78
2021/05/21 09:17:54;;;;;;;14.20;2.62;;;14.60;99.90;;;;;;1959941;73;21144;-78
2021/05/21 09:20:33;;;;;;;16.77;3.30;;;14.60;99.90;;;;;;1953429;73;21100;-76
2021/05/21 09:23:11;;;;;;;16.17;2.90;;;14.60;99.90;;;;;;1952601;73;21472;-79
2021/05/21 09:25:57;;;;;;;14.68;3.15;;;14.70;99.90;;;;;;1952651;72;21687;-77
2021/05/21 09:28:39;;;;;;;20.68;2.95;;;14.80;99.90;;;;;;1952273;72;21356;-78
2021/05/21 09:31:09;;;;;;;15.13;2.90;;;14.60;99.90;;;;;;1956119;72;21115;-78
2021/05/21 09:33:38;;;;;;;15.88;3.35;;;14.70;99.90;;;;;;1954782;72;21088;-79
2021/05/21 09:36:06;;;;;;;18.05;3.40;;;14.80;99.90;;;;;;1956853;71;21125;-77
2021/05/21 09:38:54;;;;;;;19.10;3.37;;;14.80;99.90;;;;;;1952122;73;21073;-77
2021/05/21 09:41:22;;;;;;;18.65;3.75;;;14.70;99.90;;;;;;1955535;72;22179;-79
2021/05/21 09:43:59;;;;;;;17.30;3.08;;;14.50;99.90;;;;;;1954655;73;21097;-78
2021/05/21 09:46:39;;;;;;;20.08;3.92;;;14.60;99.90;;;;;;1954873;73;21105;-77
2021/05/21 09:49:28;;;;;;;15.08;2.95;;;14.60;99.90;;;;;;1953474;73;21551;-77
2021/05/21 09:51:58;;;;;;;14.63;2.77;;;14.60;99.90;;;;;;1954414;72;21652;-77
2021/05/21 09:54:26;;;;;;;16.75;3.55;;;14.60;99.90;;;;;;1950539;72;21760;-76
2021/05/21 09:57:05;;;;;;;12.90;2.67;;;14.60;99.90;;;;;;1954234;72;21077;-78
2021/05/21 09:59:46;;;;;;;8.73;2.35;;;14.60;99.90;;;;;;1952097;72;21030;-77
2021/05/21 10:02:31;;;;;;;12.50;2.62;;;14.80;99.90;;;;;;1952804;72;21043;-78
2021/05/21 10:05:01;;;;;;;11.80;2.85;;;14.90;99.90;;;;;;1954995;72;21589;-77
2021/05/21 10:07:29;;;;;;;17.75;2.50;;;14.90;99.90;;;;;;1959560;73;21485;-77
2021/05/21 10:09:57;;;;;;;12.78;2.55;;;15.00;99.90;;;;;;1951554;73;21634;-78
2021/05/21 10:12:27;;;;;;;12.68;2.85;;;15.20;99.90;;;;;;1953873;71;21091;-79
2021/05/21 10:14:55;;;;;;;12.43;2.47;;;15.10;99.90;;;;;;1956996;72;21574;-77
2021/05/21 10:17:25;;;;;;;13.38;2.95;;;15.10;99.90;;;;;;1954571;72;21132;-78
2021/05/21 10:19:54;;;;;;;13.78;2.90;;;14.70;99.90;;;;;;1960326;72;21087;-77
2021/05/21 10:22:31;;;;;;;14.70;3.50;;;14.70;99.90;;;;;;1957012;72;20990;-77
2021/05/21 10:25:01;;;;;;;12.58;2.67;;;14.70;99.90;;;;;;1955956;73;21065;-77
2021/05/21 10:27:32;;;;;;;12.85;2.37;;;14.60;99.90;;;;;;1959951;72;21062;-80
2021/05/21 10:30:02;;;;;;;15.50;3.15;;;14.40;99.90;;;;;;1958185;71;21163;-78
2021/05/21 10:32:31;;;;;;;16.35;3.35;;;14.40;99.90;;;;;;1958023;72;21606;-79
2021/05/21 10:35:00;;;;;;;10.00;3.12;;;14.30;99.90;;;;;;1956745;71;21223;-78
2021/05/21 10:37:35;;;;;;;17.90;3.60;;;14.20;99.90;;;;;;1958857;73;21066;-79
2021/05/21 10:40:14;;;;;;;16.60;3.08;;;14.20;99.90;;;;;;1952197;73;21476;-78
2021/05/21 10:42:47;;;;;;;;;;;14.10;99.90;;;;;;1957387;72;21181;-78
2021/05/21 10:45:20;;;;;;;15.10;3.37;;;14.20;99.90;;;;;;1950242;72;20430;-78
2021/05/21 10:48:07;;;;;;;16.60;3.10;;;14.20;99.90;;;;;;1953651;72;21096;-78
2021/05/21 10:50:39;;;;;;;20.75;4.55;;;14.20;99.90;;;;;;1959141;72;21252;-77
2021/05/21 10:53:08;;;;;;;15.95;3.10;;;14.30;99.90;;;;;;1951891;71;21146;-77
2021/05/21 10:55:55;;;;;;;14.68;3.37;;;14.50;99.90;;;;;;1950813;73;21135;-78
2021/05/21 10:58:30;;;;;;;16.32;3.27;;;14.30;99.90;;;;;;1956763;73;21137;-77
2021/05/21 11:01:19;;;;;;;13.55;3.30;;;14.40;99.90;;;;;;1949346;73;21026;-80
2021/05/21 11:04:07;;;;;;;13.93;3.22;;;14.40;99.90;;;;;;1900119;74;21117;-80
2021/05/21 11:06:46;;;;;;;18.55;3.45;;;14.20;99.90;;;;;;1897261;74;21117;-79
2021/05/21 11:09:17;;;;;;;15.05;3.20;;;14.00;99.90;;;;;;1900900;74;21093;-79
2021/05/21 11:11:56;;;;;;;15.83;2.95;;;14.10;99.90;;;;;;1910182;73;21093;-79
2021/05/21 11:14:32;;;;;;;16.20;3.47;;;14.10;99.90;;;;;;1930951;73;21076;-79
2021/05/21 11:17:11;;;;;;;20.35;3.67;;;14.20;99.90;;;;;;1931060;73;21448;-79
2021/05/21 11:19:50;;;;;;;21.68;4.22;;;14.20;99.90;;;;;;1929997;73;22060;-79
2021/05/21 11:22:29;;;;;;;18.87;3.08;;;14.20;99.90;;;;;;1929182;73;21535;-79
2021/05/21 11:25:02;;;;;;;18.05;3.52;;;14.30;99.90;;;;;;1931468;74;21424;-80
2021/05/21 11:27:32;;;;;;;16.10;3.85;;;14.60;99.90;;;;;;1929942;73;21648;-79
2021/05/21 11:30:04;;;;;;;16.05;3.12;;;14.80;99.90;;;;;;1929763;73;21155;-79
2021/05/21 11:32:32;;;;;;;18.10;3.05;;;14.80;99.90;;;;;;1923373;73;21153;-80
2021/05/21 11:35:00;;;;;;;13.70;2.77;;;15.00;99.90;;;;;;1930649;74;21037;-83
2021/05/21 11:37:30;;;;;;;17.70;3.10;;;15.20;99.90;;;;;;1927988;73;21747;-82
2021/05/21 11:39:59;;;;;;;14.93;3.22;;;15.40;99.90;;;;;;1930049;73;21160;-83
2021/05/21 11:42:27;;;;;;;15.00;3.20;;;15.80;99.90;;;;;;1929376;73;21259;-83
2021/05/21 11:44:57;;;;;;;16.65;3.05;;;16.20;99.90;;;;;;1929409;73;21104;-82
2021/05/21 11:47:26;;;;;;;17.50;3.45;;;16.60;99.90;;;;;;1928275;73;21045;-80
2021/05/21 11:49:55;;;;;;;14.98;2.90;;;16.80;99.90;;;;;;1928167;74;21017;-79
2021/05/21 11:52:23;;;;;;;13.70;2.42;;;16.90;99.90;;;;;;1929990;73;21152;-80
2021/05/21 11:54:51;;;;;;;12.40;2.58;;;16.80;99.50;;;;;;1929712;73;21716;-79
2021/05/21 11:57:20;;;;;;;14.80;2.52;;;16.60;99.90;;;;;;1930497;74;21558;-79
2021/05/21 11:59:48;;;;;;;11.40;2.47;;;16.30;99.60;;;;;;1930291;73;21570;-80
2021/05/21 12:02:17;;;;;;;9.93;2.17;;;16.30;99.90;;;;;;1927599;73;21054;-80
2021/05/21 12:04:46;;;;;;;12.30;2.40;;;16.60;99.80;;;;;;1930004;73;21174;-81
2021/05/21 12:07:28;;;;;;;9.63;2.22;;;17.10;99.90;;;;;;1930578;74;21010;-81
2021/05/21 12:10:02;;;;;;;12.88;2.87;;;17.50;98.00;;;;;;1929338;73;20999;-80
2021/05/21 12:12:31;;;;;;;12.15;2.50;;;17.40;97.50;;;;;;1927948;73;21567;-78
2021/05/21 12:15:17;;;;;;;12.95;2.60;;;16.90;97.00;;;;;;1928026;74;21347;-80
2021/05/21 12:17:49;;;;;;;12.35;2.60;;;16.80;98.20;;;;;;1930564;73;22074;-79
2021/05/21 12:20:17;;;;;;;11.15;2.50;;;16.90;97.50;;;;;;1929338;73;21037;-79
2021/05/21 12:23:02;;;;;;;11.63;2.52;;;16.90;97.20;;;;;;1931048;74;21223;-80
2021/05/21 12:25:31;;;;;;;10.08;2.30;;;16.70;97.30;;;;;;1931158;73;21245;-80
2021/05/21 12:27:59;;;;;;;10.53;2.35;;;16.50;97.90;;;;;;1929395;73;21138;-81
2021/05/21 12:30:28;;;;;;;13.68;2.22;;;16.50;97.50;;;;;;1930185;73;21120;-78
2021/05/21 12:32:56;;;;;;;9.83;2.60;;;16.40;97.60;;;;;;1928633;74;21127;-79
2021/05/21 12:35:38;;;;;;;15.55;2.40;;;16.30;98.30;;;;;;1928073;73;21095;-80
2021/05/21 12:38:08;;;;;;;10.45;2.52;;;16.20;98.10;;;;;;1926353;73;21037;-78
2021/05/21 12:40:38;;;;;;;15.20;2.40;;;16.00;98.70;;;;;;1927204;73;21198;-78
2021/05/21 12:43:12;;;;;;;12.45;2.33;;;16.00;98.60;;;;;;1926947;74;21062;-78
2021/05/21 12:45:40;;;;;;;8.25;1.67;;;15.80;98.60;;;;;;1927454;73;21046;-78
2021/05/21 12:48:08;;;;;;;7.35;1.15;;;15.70;97.60;;;;;;1924612;74;21393;-80
2021/05/21 12:50:35;;;;;;;8.23;1.02;;;15.10;99.40;;;;;;1930610;74;21198;-79
2021/05/21 12:53:04;;;;;;;8.05;1.50;;;14.60;99.90;;;;;;1930168;74;21541;-79